Time;durP1;ratioP1;P1;durP2;ratioP2;P2;SDS_P1;SDS_P2;PMS_P1;PMS_P2;Temp;Humidity;BMP_temperature;BMP_pressure;BME280_temperature;BME280_humidity;BME280_pressure;Samples;Min_cycle;Max_cycle;Signal;HPM_P1;HPM_P2
2022/01/18 00:01:16;;;;;;;16.43;7.70;;;;;;;;;;5138940;27;20446;-75
2022/01/18 00:03:45;;;;;;;11.73;7.80;;;;;;;;;;5138578;27;20513;-74
2022/01/18 00:06:13;;;;;;;12.23;7.30;;;;;;;;;;5139397;27;20490;-74
2022/01/18 00:08:41;;;;;;;11.80;7.70;;;;;;;;;;5145893;27;20974;-74
2022/01/18 00:11:09;;;;;;;12.13;6.97;;;;;;;;;;5127964;27;20465;-74
2022/01/18 00:13:44;;;;;;;9.37;6.90;;;;;;;;;;5138066;27;20529;-74
2022/01/18 00:16:36;;;;;;;15.90;7.53;;;;;;;;;;5138462;27;20465;-74
2022/01/18 00:19:08;;;;;;;11.90;7.70;;;;;;;;;;5138429;27;20505;-74
2022/01/18 00:21:51;;;;;;;10.00;7.30;;;;;;;;;;5135793;27;20906;-75
2022/01/18 00:24:19;;;;;;;14.40;7.50;;;;;;;;;;5127289;28;20918;-75
2022/01/18 00:26:47;;;;;;;13.10;7.90;;;;;;;;;;5119953;28;21080;-74
2022/01/18 00:29:19;;;;;;;12.87;8.50;;;;;;;;;;5130218;27;20454;-74
2022/01/18 00:34:26;;;;;;;13.17;7.73;;;;;;;;;;5138617;28;20444;-74
2022/01/18 00:37:10;;;;;;;14.63;8.57;;;;;;;;;;5139429;28;20470;-74
2022/01/18 00:39:40;;;;;;;15.10;8.47;;;;;;;;;;5130747;28;20489;-74
2022/01/18 00:42:09;;;;;;;14.40;8.50;;;;;;;;;;5138660;28;20449;-74
2022/01/18 00:44:38;;;;;;;13.30;8.80;;;;;;;;;;5138095;28;20821;-74
2022/01/18 00:47:07;;;;;;;16.93;9.33;;;;;;;;;;5138164;28;20465;-74
2022/01/18 00:49:41;;;;;;;16.07;8.70;;;;;;;;;;5137995;28;20477;-74
2022/01/18 00:52:09;;;;;;;15.97;9.17;;;;;;;;;;5138382;28;20806;-74
2022/01/18 00:54:41;;;;;;;14.53;8.13;;;;;;;;;;5130607;27;20495;-74
2022/01/18 00:57:09;;;;;;;11.23;7.43;;;;;;;;;;5137934;28;21039;-74
2022/01/18 00:59:40;;;;;;;15.00;8.50;;;;;;;;;;5137586;28;20536;-74
2022/01/18 01:02:14;;;;;;;18.10;9.07;;;;;;;;;;5137905;28;21240;-74
2022/01/18 01:04:47;;;;;;;13.70;8.30;;;;;;;;;;5138281;28;20509;-74
2022/01/18 01:07:16;;;;;;;20.23;10.13;;;;;;;;;;5137879;28;20466;-74
2022/01/18 01:09:44;;;;;;;15.00;8.83;;;;;;;;;;5134537;28;20546;-74
2022/01/18 01:12:14;;;;;;;14.43;8.77;;;;;;;;;;5132961;28;20441;-74
2022/01/18 01:14:45;;;;;;;15.53;9.13;;;;;;;;;;5138114;28;20438;-74
2022/01/18 01:17:28;;;;;;;18.17;9.77;;;;;;;;;;5137051;27;20484;-75
2022/01/18 01:41:40;;;;;;;19.53;9.83;;;;;;;;;;5141642;27;20456;-74
2022/01/18 01:43:09;;;;;;;18.50;10.87;;;;;;;;;;5141424;27;20502;-74
2022/01/18 01:45:37;;;;;;;18.87;9.53;;;;;;;;;;5131206;27;20485;-74
2022/01/18 01:48:08;;;;;;;19.47;10.07;;;;;;;;;;5141081;27;20438;-75
2022/01/18 01:50:44;;;;;;;17.30;9.53;;;;;;;;;;5100413;28;20447;-74
2022/01/18 01:53:13;;;;;;;19.30;9.43;;;;;;;;;;5099409;28;20954;-74
2022/01/18 01:55:41;;;;;;;21.63;10.50;;;;;;;;;;5094362;28;20456;-74
2022/01/18 01:58:09;;;;;;;17.80;9.73;;;;;;;;;;5099687;28;20466;-74
2022/01/18 02:00:43;;;;;;;22.37;11.40;;;;;;;;;;5100357;28;20444;-74
2022/01/18 02:03:13;;;;;;;19.30;9.80;;;;;;;;;;5100074;28;20449;-74
2022/01/18 02:05:41;;;;;;;21.83;11.33;;;;;;;;;;5100004;28;21065;-74
2022/01/18 02:08:09;;;;;;;22.77;11.07;;;;;;;;;;5100044;28;20440;-74
2022/01/18 02:10:38;;;;;;;22.27;9.50;;;;;;;;;;5088494;28;20464;-74
2022/01/18 02:13:07;;;;;;;22.07;10.33;;;;;;;;;;5100166;28;20446;-74
2022/01/18 02:15:40;;;;;;;15.53;9.87;;;;;;;;;;5096631;28;20468;-75
2022/01/18 02:23:40;;;;;;;19.43;9.93;;;;;;;;;;5103921;28;20462;-73
2022/01/18 02:26:09;;;;;;;19.03;10.10;;;;;;;;;;5107181;28;20544;-73
2022/01/18 02:28:37;;;;;;;20.37;9.60;;;;;;;;;;5099086;28;20456;-74
2022/01/18 02:31:05;;;;;;;21.07;10.77;;;;;;;;;;5097904;28;20464;-74
2022/01/18 02:33:33;;;;;;;20.83;10.17;;;;;;;;;;5104966;28;20982;-73
2022/01/18 02:36:07;;;;;;;24.40;9.70;;;;;;;;;;5107200;28;20466;-73
2022/01/18 02:38:35;;;;;;;19.47;10.23;;;;;;;;;;5102898;28;20961;-73
2022/01/18 02:41:05;;;;;;;21.10;10.50;;;;;;;;;;5107661;28;20941;-74
2022/01/18 02:43:50;;;;;;;19.53;9.40;;;;;;;;;;5104762;28;20494;-74
2022/01/18 02:46:19;;;;;;;20.60;9.83;;;;;;;;;;5107062;28;20482;-73
2022/01/18 02:48:47;;;;;;;16.53;8.63;;;;;;;;;;5119165;27;20458;-74
2022/01/18 02:51:16;;;;;;;18.33;9.07;;;;;;;;;;5143957;27;20462;-74
2022/01/18 02:53:55;;;;;;;20.20;10.83;;;;;;;;;;5148375;27;20814;-73
2022/01/18 02:56:24;;;;;;;24.67;10.73;;;;;;;;;;5144609;27;20485;-73
2022/01/18 02:58:58;;;;;;;18.27;9.23;;;;;;;;;;5132759;27;20489;-74
2022/01/18 03:04:13;;;;;;;20.77;10.10;;;;;;;;;;5138135;27;20442;-74
2022/01/18 03:06:42;;;;;;;18.77;10.30;;;;;;;;;;5137999;27;20496;-74
2022/01/18 03:09:10;;;;;;;23.33;10.73;;;;;;;;;;5133251;27;20481;-74
2022/01/18 03:11:39;;;;;;;22.47;10.53;;;;;;;;;;5134657;27;20830;-74
2022/01/18 03:14:07;;;;;;;22.80;10.90;;;;;;;;;;5138105;27;20441;-74
2022/01/18 03:16:35;;;;;;;19.97;9.97;;;;;;;;;;5137996;27;20465;-74
2022/01/18 03:19:03;;;;;;;21.67;10.37;;;;;;;;;;5137233;27;20454;-74
2022/01/18 03:21:31;;;;;;;21.90;11.33;;;;;;;;;;5136557;27;20463;-74
2022/01/18 03:24:13;;;;;;;20.00;10.90;;;;;;;;;;5124995;27;20573;-73
2022/01/18 03:29:23;;;;;;;22.13;9.87;;;;;;;;;;5124728;27;20442;-74
2022/01/18 03:31:51;;;;;;;24.50;10.50;;;;;;;;;;5139263;27;20442;-74
2022/01/18 03:34:19;;;;;;;17.93;9.17;;;;;;;;;;5139306;27;20441;-74
2022/01/18 03:36:47;;;;;;;20.50;10.17;;;;;;;;;;5133156;27;20470;-74
2022/01/18 03:39:16;;;;;;;16.77;7.93;;;;;;;;;;5132467;27;20448;-73
2022/01/18 03:41:51;;;;;;;18.33;9.63;;;;;;;;;;5139050;27;20464;-74
2022/01/18 03:44:19;;;;;;;15.73;8.97;;;;;;;;;;5138813;27;20448;-73
2022/01/18 03:46:47;;;;;;;19.07;9.43;;;;;;;;;;5137531;27;20492;-74
2022/01/18 03:49:15;;;;;;;19.87;9.77;;;;;;;;;;5136495;27;20477;-74
2022/01/18 03:51:43;;;;;;;18.27;10.83;;;;;;;;;;5134667;27;20446;-73
2022/01/18 03:54:13;;;;;;;19.67;10.53;;;;;;;;;;5124645;27;20940;-74
2022/01/18 03:56:42;;;;;;;14.57;8.20;;;;;;;;;;5137034;27;20461;-74
2022/01/18 03:59:11;;;;;;;16.37;8.53;;;;;;;;;;5123073;27;21632;-73
2022/01/18 04:01:39;;;;;;;13.37;8.33;;;;;;;;;;5124267;27;20943;-74
2022/01/18 04:04:07;;;;;;;18.37;8.97;;;;;;;;;;5138845;27;20469;-73
2022/01/18 04:06:35;;;;;;;18.53;8.40;;;;;;;;;;5138602;27;20492;-73
2022/01/18 04:09:03;;;;;;;18.90;8.43;;;;;;;;;;5131678;27;20531;-73
2022/01/18 04:11:32;;;;;;;17.73;9.70;;;;;;;;;;5134881;27;20462;-74
2022/01/18 04:14:01;;;;;;;18.60;8.77;;;;;;;;;;5137956;27;20458;-74
2022/01/18 04:16:30;;;;;;;17.17;9.57;;;;;;;;;;5136581;27;20461;-73
2022/01/18 04:19:20;;;;;;;17.30;9.43;;;;;;;;;;5138063;27;20458;-74
2022/01/18 04:27:17;;;;;;;18.73;8.83;;;;;;;;;;5132855;28;20972;-73
2022/01/18 04:29:47;;;;;;;22.57;10.53;;;;;;;;;;5134345;27;20460;-73
2022/01/18 04:32:15;;;;;;;16.80;8.90;;;;;;;;;;5138070;28;20944;-74
2022/01/18 04:34:43;;;;;;;18.40;9.13;;;;;;;;;;5138288;28;20807;-73
2022/01/18 04:37:15;;;;;;;17.93;8.57;;;;;;;;;;5138355;28;21027;-74
2022/01/18 04:39:45;;;;;;;20.57;9.00;;;;;;;;;;5130989;27;20462;-73
2022/01/18 04:42:32;;;;;;;20.20;10.40;;;;;;;;;;5125302;28;20586;-73
2022/01/18 04:50:29;;;;;;;22.50;9.83;;;;;;;;;;5138150;28;20483;-74
2022/01/18 04:52:57;;;;;;;18.27;9.37;;;;;;;;;;5138564;28;20438;-74
2022/01/18 04:55:31;;;;;;;17.97;9.57;;;;;;;;;;5131909;27;20458;-74
2022/01/18 04:57:58;;;;;;;16.33;8.70;;;;;;;;;;5131528;27;20444;-73
2022/01/18 05:00:27;;;;;;;17.13;9.67;;;;;;;;;;5128475;27;20456;-73
2022/01/18 05:02:57;;;;;;;14.93;8.33;;;;;;;;;;5141863;27;20441;-74
2022/01/18 05:05:27;;;;;;;16.17;9.07;;;;;;;;;;5142345;27;20450;-74
2022/01/18 05:07:58;;;;;;;16.70;8.87;;;;;;;;;;5146358;27;20481;-74
2022/01/18 05:10:29;;;;;;;21.17;10.23;;;;;;;;;;5156089;27;20543;-74
2022/01/18 05:12:58;;;;;;;14.03;7.73;;;;;;;;;;5142088;27;20451;-74
2022/01/18 05:15:42;;;;;;;14.97;8.43;;;;;;;;;;5142211;27;20496;-74
2022/01/18 05:21:11;;;;;;;16.40;8.50;;;;;;;;;;5140820;27;20966;-74
2022/01/18 05:23:39;;;;;;;13.77;8.07;;;;;;;;;;5141951;27;20446;-74
2022/01/18 05:26:07;;;;;;;12.83;7.30;;;;;;;;;;5129378;27;20477;-74
2022/01/18 05:28:35;;;;;;;17.10;9.47;;;;;;;;;;5133749;27;20454;-74
2022/01/18 05:31:05;;;;;;;16.20;8.33;;;;;;;;;;5141131;27;20527;-74
2022/01/18 05:33:33;;;;;;;18.00;9.03;;;;;;;;;;5141363;27;20445;-74
2022/01/18 05:36:01;;;;;;;15.57;8.17;;;;;;;;;;5141509;27;20965;-74
2022/01/18 05:38:31;;;;;;;15.10;9.17;;;;;;;;;;5141772;27;20444;-74
2022/01/18 05:40:59;;;;;;;15.87;7.87;;;;;;;;;;5132722;27;20454;-74
2022/01/18 05:43:27;;;;;;;18.50;9.23;;;;;;;;;;5141780;27;20438;-74
2022/01/18 05:45:55;;;;;;;14.13;9.20;;;;;;;;;;5142853;27;20457;-74
2022/01/18 05:48:25;;;;;;;14.10;8.23;;;;;;;;;;5139783;27;20476;-74
2022/01/18 05:50:59;;;;;;;16.93;9.20;;;;;;;;;;5140698;27;20472;-74
2022/01/18 05:53:27;;;;;;;15.13;8.03;;;;;;;;;;5137381;27;20462;-74
2022/01/18 05:55:55;;;;;;;17.00;9.47;;;;;;;;;;5139309;27;20468;-74
2022/01/18 05:58:24;;;;;;;15.37;8.53;;;;;;;;;;5139178;27;20516;-74
2022/01/18 06:00:54;;;;;;;16.33;8.93;;;;;;;;;;5142105;27;20434;-74
2022/01/18 06:03:27;;;;;;;15.40;8.10;;;;;;;;;;5139237;27;20533;-74
2022/01/18 06:08:42;;;;;;;17.20;8.53;;;;;;;;;;5139387;27;20480;-74
2022/01/18 06:11:11;;;;;;;17.17;8.13;;;;;;;;;;5138581;27;20498;-74
2022/01/18 06:13:39;;;;;;;19.13;9.10;;;;;;;;;;5139132;27;20521;-74
2022/01/18 06:16:07;;;;;;;15.83;8.83;;;;;;;;;;5137015;27;20560;-74
2022/01/18 06:18:35;;;;;;;16.00;7.93;;;;;;;;;;5140849;27;20446;-74
2022/01/18 06:21:05;;;;;;;13.77;8.30;;;;;;;;;;5135667;27;20948;-74
2022/01/18 06:23:33;;;;;;;12.37;8.03;;;;;;;;;;5134986;27;20453;-74
2022/01/18 06:26:03;;;;;;;16.90;9.40;;;;;;;;;;5138960;27;20495;-73
2022/01/18 06:28:34;;;;;;;15.40;7.73;;;;;;;;;;5138944;27;20560;-74
2022/01/18 06:31:02;;;;;;;16.43;8.90;;;;;;;;;;5134791;27;20810;-74
2022/01/18 06:33:30;;;;;;;14.17;7.70;;;;;;;;;;5139820;27;20541;-73
2022/01/18 06:35:58;;;;;;;15.83;8.33;;;;;;;;;;5140159;27;20453;-74
2022/01/18 06:38:28;;;;;;;18.07;8.90;;;;;;;;;;5131981;27;20447;-74
2022/01/18 06:40:55;;;;;;;16.37;7.97;;;;;;;;;;5127053;27;20454;-64
2022/01/18 06:43:23;;;;;;;15.80;9.17;;;;;;;;;;5145920;27;20429;-61
2022/01/18 06:45:52;;;;;;;17.40;8.67;;;;;;;;;;5147861;27;20453;-64
2022/01/18 06:48:20;;;;;;;14.33;7.93;;;;;;;;;;5141824;27;20477;-63
2022/01/18 06:50:48;;;;;;;15.33;9.93;;;;;;;;;;5139945;27;20480;-64
2022/01/18 06:53:15;;;;;;;16.80;9.17;;;;;;;;;;5139977;27;20434;-64
2022/01/18 06:55:51;;;;;;;15.47;8.90;;;;;;;;;;5136870;27;20462;-63
2022/01/18 06:58:19;;;;;;;15.43;8.67;;;;;;;;;;5145749;27;20537;-64
2022/01/18 07:00:47;;;;;;;14.50;8.77;;;;;;;;;;5139860;27;20466;-64
2022/01/18 07:03:17;;;;;;;15.27;8.40;;;;;;;;;;5139170;27;20920;-64
2022/01/18 07:05:45;;;;;;;19.53;12.27;;;;;;;;;;5139727;27;20449;-64
2022/01/18 07:08:16;;;;;;;16.23;9.17;;;;;;;;;;5137592;27;20477;-64
2022/01/18 07:10:45;;;;;;;16.43;9.73;;;;;;;;;;5140316;27;20457;-63
2022/01/18 07:13:14;;;;;;;18.20;10.33;;;;;;;;;;5146646;27;20876;-64
2022/01/18 07:15:42;;;;;;;12.93;8.23;;;;;;;;;;5143540;27;20545;-64
2022/01/18 07:18:10;;;;;;;16.20;9.13;;;;;;;;;;5139160;27;20434;-64
2022/01/18 07:20:40;;;;;;;21.07;9.07;;;;;;;;;;5139422;27;20474;-64
2022/01/18 07:23:11;;;;;;;16.03;8.90;;;;;;;;;;5139257;27;20441;-64
2022/01/18 07:25:42;;;;;;;16.33;8.87;;;;;;;;;;5136259;27;20466;-71
2022/01/18 07:28:12;;;;;;;18.90;10.47;;;;;;;;;;5124027;27;20489;-70
2022/01/18 07:30:40;;;;;;;16.37;8.80;;;;;;;;;;5139441;27;20437;-73
2022/01/18 07:33:08;;;;;;;17.10;8.67;;;;;;;;;;5138932;27;20481;-73
2022/01/18 07:35:36;;;;;;;15.70;9.73;;;;;;;;;;5139402;27;20517;-73
2022/01/18 07:38:12;;;;;;;18.83;8.87;;;;;;;;;;5135297;27;20457;-71
2022/01/18 07:40:42;;;;;;;17.23;9.63;;;;;;;;;;5148053;27;20448;-71
2022/01/18 07:43:10;;;;;;;16.83;9.43;;;;;;;;;;5146009;27;20440;-71
2022/01/18 07:45:39;;;;;;;18.47;9.90;;;;;;;;;;5144019;27;20548;-71
2022/01/18 07:48:07;;;;;;;14.33;8.40;;;;;;;;;;5146152;27;20478;-72
2022/01/18 07:50:35;;;;;;;16.43;8.73;;;;;;;;;;5149227;27;20462;-71
2022/01/18 07:53:03;;;;;;;14.93;9.07;;;;;;;;;;5138351;27;20458;-71
2022/01/18 07:55:31;;;;;;;15.70;8.70;;;;;;;;;;5145078;27;20449;-72
2022/01/18 07:58:00;;;;;;;14.43;8.73;;;;;;;;;;5144822;27;20435;-72
2022/01/18 08:00:29;;;;;;;13.63;9.10;;;;;;;;;;5131835;27;20449;-71
2022/01/18 08:02:59;;;;;;;17.00;9.47;;;;;;;;;;5126981;27;20800;-70
2022/01/18 08:05:27;;;;;;;18.53;9.93;;;;;;;;;;5125823;27;20949;-70
2022/01/18 08:07:55;;;;;;;16.43;10.80;;;;;;;;;;5126693;27;20542;-70
2022/01/18 08:10:30;;;;;;;17.97;10.10;;;;;;;;;;5126575;27;20442;-70
2022/01/18 08:13:00;;;;;;;21.87;10.80;;;;;;;;;;5128618;27;20438;-70
2022/01/18 08:15:36;;;;;;;16.43;8.90;;;;;;;;;;5132668;27;20538;-69
2022/01/18 08:18:06;;;;;;;21.10;9.60;;;;;;;;;;5143420;27;20432;-73
2022/01/18 08:20:34;;;;;;;18.47;8.50;;;;;;;;;;5150163;27;20983;-73
2022/01/18 08:23:02;;;;;;;22.90;9.43;;;;;;;;;;5144780;27;20437;-72
2022/01/18 08:25:31;;;;;;;20.00;10.53;;;;;;;;;;5147527;27;20454;-73
2022/01/18 08:28:00;;;;;;;15.47;8.70;;;;;;;;;;5144296;27;20475;-72
2022/01/18 08:30:28;;;;;;;16.23;9.43;;;;;;;;;;5145161;27;20948;-72
2022/01/18 08:32:56;;;;;;;15.77;8.83;;;;;;;;;;5146222;27;20450;-72
2022/01/18 08:35:27;;;;;;;17.40;9.10;;;;;;;;;;5145131;27;20429;-72
2022/01/18 08:37:55;;;;;;;20.13;10.00;;;;;;;;;;5150392;27;20548;-72
2022/01/18 08:40:23;;;;;;;21.33;10.03;;;;;;;;;;5147968;27;20540;-72
2022/01/18 08:42:51;;;;;;;17.30;9.63;;;;;;;;;;5150547;27;20433;-72
2022/01/18 08:45:19;;;;;;;23.43;11.20;;;;;;;;;;5149209;27;20516;-72
2022/01/18 08:47:48;;;;;;;20.67;9.70;;;;;;;;;;5149604;27;20472;-72
2022/01/18 08:50:17;;;;;;;16.73;9.07;;;;;;;;;;5145748;27;20837;-72
2022/01/18 08:52:50;;;;;;;17.93;9.13;;;;;;;;;;5142160;27;20445;-71
2022/01/18 08:55:18;;;;;;;16.23;9.83;;;;;;;;;;5138719;27;20929;-72
2022/01/18 08:57:47;;;;;;;19.30;9.43;;;;;;;;;;5147293;27;20983;-73
2022/01/18 09:00:15;;;;;;;19.43;9.33;;;;;;;;;;5147417;27;20452;-73
2022/01/18 09:02:43;;;;;;;22.20;11.30;;;;;;;;;;5148562;27;20444;-73
2022/01/18 09:05:12;;;;;;;19.10;11.10;;;;;;;;;;5150042;27;20465;-73
2022/01/18 09:07:40;;;;;;;16.33;9.60;;;;;;;;;;5148905;27;20535;-72
2022/01/18 09:10:11;;;;;;;16.23;9.30;;;;;;;;;;5148684;27;20517;-72
2022/01/18 09:12:40;;;;;;;19.27;9.53;;;;;;;;;;5149839;27;20457;-72
2022/01/18 09:15:09;;;;;;;19.90;9.73;;;;;;;;;;5145854;27;20467;-72
2022/01/18 09:17:37;;;;;;;20.27;10.63;;;;;;;;;;5141269;27;20462;-72
2022/01/18 09:20:06;;;;;;;18.60;10.30;;;;;;;;;;5141395;27;20815;-72
2022/01/18 09:22:35;;;;;;;19.20;10.50;;;;;;;;;;5141664;27;20445;-72
2022/01/18 09:25:04;;;;;;;20.53;10.27;;;;;;;;;;5147176;27;20515;-71
2022/01/18 09:27:33;;;;;;;16.97;9.00;;;;;;;;;;5126581;27;20474;-72
2022/01/18 09:30:01;;;;;;;22.80;11.47;;;;;;;;;;5129023;27;20841;-72
2022/01/18 09:32:30;;;;;;;21.20;10.80;;;;;;;;;;5139073;27;20452;-72
2022/01/18 09:34:58;;;;;;;19.20;9.87;;;;;;;;;;5152481;27;20433;-71
2022/01/18 09:37:26;;;;;;;22.03;11.50;;;;;;;;;;5148033;27;20454;-71
2022/01/18 09:39:54;;;;;;;17.33;10.40;;;;;;;;;;5145984;27;21006;-72
2022/01/18 09:42:23;;;;;;;21.50;11.03;;;;;;;;;;5144095;27;20540;-72
2022/01/18 09:44:52;;;;;;;21.07;11.03;;;;;;;;;;5149525;27;20523;-72
2022/01/18 09:47:22;;;;;;;19.17;10.07;;;;;;;;;;5145967;27;20462;-72
2022/01/18 09:49:51;;;;;;;18.13;10.67;;;;;;;;;;5148067;27;20481;-72
2022/01/18 09:52:19;;;;;;;20.93;11.00;;;;;;;;;;5151918;27;20524;-72
2022/01/18 09:54:47;;;;;;;17.30;9.50;;;;;;;;;;5140641;27;20532;-72
2022/01/18 09:57:16;;;;;;;18.97;9.23;;;;;;;;;;5145059;27;20844;-72
2022/01/18 09:59:44;;;;;;;20.67;10.67;;;;;;;;;;5144940;27;20442;-72
2022/01/18 10:02:13;;;;;;;18.43;10.33;;;;;;;;;;5148316;27;20453;-72
2022/01/18 10:04:42;;;;;;;17.97;10.50;;;;;;;;;;5147132;27;20441;-72
2022/01/18 10:07:10;;;;;;;15.27;9.50;;;;;;;;;;5149797;27;20515;-72
2022/01/18 10:09:38;;;;;;;21.67;9.67;;;;;;;;;;5145074;27;20484;-72
2022/01/18 10:12:10;;;;;;;17.30;9.80;;;;;;;;;;5147135;27;20441;-72
2022/01/18 10:14:38;;;;;;;20.10;10.07;;;;;;;;;;5135921;27;20450;-72
2022/01/18 10:17:07;;;;;;;20.07;11.47;;;;;;;;;;5138792;27;20473;-72
2022/01/18 10:19:41;;;;;;;17.23;9.47;;;;;;;;;;5140355;27;20460;-73
2022/01/18 10:22:12;;;;;;;19.77;10.00;;;;;;;;;;5140179;27;20950;-73
2022/01/18 10:24:41;;;;;;;19.93;10.70;;;;;;;;;;5140758;27;20525;-73
2022/01/18 10:27:09;;;;;;;16.47;10.13;;;;;;;;;;5133940;27;20937;-73
2022/01/18 10:29:38;;;;;;;17.57;9.50;;;;;;;;;;5140435;27;20480;-73
2022/01/18 10:32:17;;;;;;;19.73;10.37;;;;;;;;;;5135901;27;20533;-72
2022/01/18 10:35:06;;;;;;;19.80;10.40;;;;;;;;;;5135039;27;20473;-73
2022/01/18 10:37:34;;;;;;;17.90;10.30;;;;;;;;;;5139905;27;20458;-73
2022/01/18 10:40:04;;;;;;;22.47;9.63;;;;;;;;;;5142952;27;20520;-73
2022/01/18 10:42:39;;;;;;;19.80;11.53;;;;;;;;;;5146482;27;20949;-74
2022/01/18 10:45:09;;;;;;;18.67;10.70;;;;;;;;;;5142934;27;20452;-73
2022/01/18 10:47:38;;;;;;;22.40;11.03;;;;;;;;;;5148884;27;20445;-72
2022/01/18 10:50:12;;;;;;;21.00;10.50;;;;;;;;;;5139845;27;20845;-71
2022/01/18 10:52:41;;;;;;;17.80;10.07;;;;;;;;;;5139882;27;22165;-75
2022/01/18 10:55:15;;;;;;;17.37;9.37;;;;;;;;;;5139804;27;20442;-72
2022/01/18 10:57:44;;;;;;;20.47;11.17;;;;;;;;;;5125347;27;20545;-72
2022/01/18 11:00:13;;;;;;;18.00;9.60;;;;;;;;;;5141993;27;20437;-76
2022/01/18 11:02:42;;;;;;;15.93;9.70;;;;;;;;;;5138407;27;20454;-77
2022/01/18 11:05:16;;;;;;;17.70;10.67;;;;;;;;;;5124756;27;20472;-75
2022/01/18 11:07:45;;;;;;;21.13;10.47;;;;;;;;;;5123974;27;20513;-77
2022/01/18 11:10:14;;;;;;;23.37;11.20;;;;;;;;;;5122295;27;20488;-73
2022/01/18 11:12:46;;;;;;;22.57;11.57;;;;;;;;;;5138436;27;20446;-77
2022/01/18 11:15:19;;;;;;;17.67;11.20;;;;;;;;;;5138693;27;20440;-74
2022/01/18 11:17:52;;;;;;;21.60;11.27;;;;;;;;;;5123892;27;20465;-75
2022/01/18 11:20:21;;;;;;;19.20;11.13;;;;;;;;;;5124395;27;20810;-75
2022/01/18 11:22:50;;;;;;;19.73;11.50;;;;;;;;;;5122704;27;20465;-74
2022/01/18 11:25:19;;;;;;;23.10;11.53;;;;;;;;;;5122660;27;20441;-76
2022/01/18 11:27:49;;;;;;;19.90;11.00;;;;;;;;;;5127858;27;20475;-78
2022/01/18 11:30:19;;;;;;;18.63;9.77;;;;;;;;;;5138369;27;20492;-76
2022/01/18 11:32:47;;;;;;;19.80;10.90;;;;;;;;;;5138763;27;21008;-77
2022/01/18 11:35:17;;;;;;;22.33;12.47;;;;;;;;;;5138063;27;20489;-74
2022/01/18 11:37:51;;;;;;;25.30;10.33;;;;;;;;;;5139052;27;20466;-77
2022/01/18 11:40:19;;;;;;;20.93;11.77;;;;;;;;;;5135793;27;20460;-77
2022/01/18 11:42:50;;;;;;;22.07;11.70;;;;;;;;;;5138996;27;20877;-77
2022/01/18 11:45:39;;;;;;;22.20;11.63;;;;;;;;;;5132341;27;20443;-73
2022/01/18 11:48:10;;;;;;;19.50;11.17;;;;;;;;;;5138133;27;20446;-65
2022/01/18 11:50:41;;;;;;;21.10;12.07;;;;;;;;;;5125485;27;20497;-65
2022/01/18 11:53:24;;;;;;;25.40;13.03;;;;;;;;;;5136990;27;20448;-65
2022/01/18 11:55:53;;;;;;;17.57;10.30;;;;;;;;;;5133473;27;20573;-64
2022/01/18 11:58:22;;;;;;;28.23;11.67;;;;;;;;;;5137388;27;20463;-64
2022/01/18 12:00:56;;;;;;;24.73;13.10;;;;;;;;;;5128168;27;20437;-77
2022/01/18 12:03:28;;;;;;;23.57;12.10;;;;;;;;;;5136374;27;20544;-77
2022/01/18 12:06:02;;;;;;;22.33;12.60;;;;;;;;;;5137050;27;20477;-77
2022/01/18 12:08:36;;;;;;;23.17;11.53;;;;;;;;;;5145169;27;20444;-77
2022/01/18 12:11:09;;;;;;;21.13;10.90;;;;;;;;;;5155706;27;20491;-78
2022/01/18 12:13:47;;;;;;;18.83;11.80;;;;;;;;;;5133889;27;20534;-78
2022/01/18 12:16:21;;;;;;;20.10;11.73;;;;;;;;;;5138058;27;20894;-77
2022/01/18 12:18:55;;;;;;;19.23;10.90;;;;;;;;;;5137509;27;21033;-78
2022/01/18 12:21:27;;;;;;;18.73;12.33;;;;;;;;;;5135024;27;20818;-78
2022/01/18 12:23:57;;;;;;;23.40;13.13;;;;;;;;;;5136864;27;20441;-77
2022/01/18 12:26:39;;;;;;;23.87;12.10;;;;;;;;;;5136919;27;20473;-78
2022/01/18 12:35:17;;;;;;;27.57;13.33;;;;;;;;;;5142914;27;20441;-77
2022/01/18 12:37:48;;;;;;;21.57;11.43;;;;;;;;;;5137814;28;20473;-77
2022/01/18 12:40:33;;;;;;;25.80;12.53;;;;;;;;;;5138565;28;20442;-77
2022/01/18 12:45:50;;;;;;;25.90;13.00;;;;;;;;;;5142410;27;20441;-76
2022/01/18 12:48:20;;;;;;;22.93;11.73;;;;;;;;;;5144176;27;20434;-75
2022/01/18 12:50:51;;;;;;;24.73;12.57;;;;;;;;;;5144134;27;20553;-77
2022/01/18 12:53:21;;;;;;;26.90;12.27;;;;;;;;;;5144957;27;20550;-76
2022/01/18 12:55:54;;;;;;;23.57;12.13;;;;;;;;;;5137815;27;20499;-76
2022/01/18 12:58:25;;;;;;;22.60;12.80;;;;;;;;;;5124446;28;20442;-76
2022/01/18 13:00:55;;;;;;;28.63;11.83;;;;;;;;;;5127464;27;20454;-76
2022/01/18 13:03:24;;;;;;;24.13;12.63;;;;;;;;;;5137080;28;20442;-77
2022/01/18 13:05:54;;;;;;;22.10;11.90;;;;;;;;;;5128927;28;20992;-77
2022/01/18 13:08:23;;;;;;;29.27;12.70;;;;;;;;;;5137468;28;20449;-76
2022/01/18 13:10:52;;;;;;;23.37;11.90;;;;;;;;;;5132034;27;20926;-76
2022/01/18 13:13:22;;;;;;;20.80;13.03;;;;;;;;;;5137962;28;20438;-76
2022/01/18 13:16:05;;;;;;;24.63;11.83;;;;;;;;;;5142756;27;20437;-77
2022/01/18 13:27:17;;;;;;;23.73;12.30;;;;;;;;;;5074892;28;20507;-76
2022/01/18 13:29:48;;;;;;;25.80;12.57;;;;;;;;;;5075404;28;20935;-77
2022/01/18 13:32:20;;;;;;;26.17;12.20;;;;;;;;;;5116077;27;20496;-75
2022/01/18 13:34:49;;;;;;;22.37;12.03;;;;;;;;;;5144505;27;20483;-76
2022/01/18 13:37:19;;;;;;;18.20;11.57;;;;;;;;;;5146781;27;21173;-76
2022/01/18 13:39:48;;;;;;;21.50;11.37;;;;;;;;;;5143884;27;20472;-76
2022/01/18 13:42:17;;;;;;;21.97;12.13;;;;;;;;;;5144774;27;20497;-76
2022/01/18 13:45:04;;;;;;;20.23;11.80;;;;;;;;;;5147401;27;20838;-77
2022/01/18 13:47:39;;;;;;;21.27;12.10;;;;;;;;;;5144684;27;20458;-77
2022/01/18 13:50:07;;;;;;;24.17;11.73;;;;;;;;;;5145855;27;20976;-77
2022/01/18 13:52:35;;;;;;;24.87;12.83;;;;;;;;;;5148917;27;20472;-76
2022/01/18 13:55:03;;;;;;;25.90;11.60;;;;;;;;;;5138344;27;20519;-74
2022/01/18 13:57:31;;;;;;;23.47;11.87;;;;;;;;;;5146156;27;20457;-75
2022/01/18 14:00:10;;;;;;;20.50;10.87;;;;;;;;;;5131430;27;20792;-76
2022/01/18 14:02:43;;;;;;;23.03;11.50;;;;;;;;;;5127910;27;20536;-76
2022/01/18 14:05:11;;;;;;;20.00;11.73;;;;;;;;;;5129893;27;20455;-78
2022/01/18 14:07:39;;;;;;;23.43;11.57;;;;;;;;;;5140652;27;20893;-77
2022/01/18 14:10:08;;;;;;;19.43;11.70;;;;;;;;;;5157808;27;20497;-77
2022/01/18 14:12:36;;;;;;;21.37;11.30;;;;;;;;;;5137099;27;20581;-78
2022/01/18 14:15:05;;;;;;;22.30;11.53;;;;;;;;;;5138383;27;20450;-77
2022/01/18 14:17:33;;;;;;;27.50;11.53;;;;;;;;;;5151183;27;21068;-77
2022/01/18 14:20:05;;;;;;;22.27;11.40;;;;;;;;;;5144099;27;20557;-77
2022/01/18 14:22:35;;;;;;;21.40;11.57;;;;;;;;;;5140342;27;20445;-76
2022/01/18 14:25:05;;;;;;;20.90;11.93;;;;;;;;;;5137939;27;20453;-77
2022/01/18 14:27:34;;;;;;;26.90;13.53;;;;;;;;;;5134347;27;20606;-76
2022/01/18 14:30:03;;;;;;;21.80;12.53;;;;;;;;;;5138535;27;20556;-78
2022/01/18 14:32:34;;;;;;;24.07;12.97;;;;;;;;;;5127042;27;20489;-78
2022/01/18 14:35:04;;;;;;;20.37;11.50;;;;;;;;;;5137453;27;20487;-78
2022/01/18 14:37:47;;;;;;;19.77;11.57;;;;;;;;;;5140057;27;20470;-78
2022/01/18 14:40:17;;;;;;;23.23;12.37;;;;;;;;;;5140048;27;20882;-76
2022/01/18 14:42:49;;;;;;;23.17;12.77;;;;;;;;;;5139330;27;20449;-77
2022/01/18 14:45:33;;;;;;;21.67;12.03;;;;;;;;;;5138911;27;20458;-77
2022/01/18 14:48:02;;;;;;;20.20;11.27;;;;;;;;;;5139662;27;20499;-77
2022/01/18 14:50:32;;;;;;;28.80;12.83;;;;;;;;;;5139443;27;20473;-76
2022/01/18 14:53:00;;;;;;;27.40;13.63;;;;;;;;;;5132455;27;21007;-75
2022/01/18 14:55:28;;;;;;;22.90;11.67;;;;;;;;;;5139034;27;20488;-77
2022/01/18 14:57:58;;;;;;;26.37;14.23;;;;;;;;;;5139884;27;20484;-76
2022/01/18 15:00:27;;;;;;;26.63;13.47;;;;;;;;;;5135984;27;20448;-77
2022/01/18 15:02:56;;;;;;;22.30;11.73;;;;;;;;;;5135921;27;20450;-77
2022/01/18 15:05:25;;;;;;;25.03;13.40;;;;;;;;;;5139349;27;20465;-77
2022/01/18 15:07:57;;;;;;;20.83;11.90;;;;;;;;;;5139630;27;20461;-76
2022/01/18 15:10:25;;;;;;;30.07;13.40;;;;;;;;;;5139245;27;20580;-78
2022/01/18 15:12:54;;;;;;;18.10;11.23;;;;;;;;;;5139699;27;20560;-78
2022/01/18 15:15:24;;;;;;;22.40;11.70;;;;;;;;;;5134980;27;20454;-78
2022/01/18 15:17:53;;;;;;;23.67;12.73;;;;;;;;;;5139144;27;20462;-78
2022/01/18 15:20:21;;;;;;;21.50;11.77;;;;;;;;;;5138090;27;20459;-78
2022/01/18 15:22:51;;;;;;;19.57;11.70;;;;;;;;;;5131261;27;20450;-78
2022/01/18 15:25:41;;;;;;;27.07;13.07;;;;;;;;;;5127292;27;20530;-76
2022/01/18 15:28:09;;;;;;;24.37;12.37;;;;;;;;;;5134895;27;20520;-77
2022/01/18 15:30:37;;;;;;;18.77;11.57;;;;;;;;;;5141797;27;20464;-78
2022/01/18 15:33:09;;;;;;;23.37;12.80;;;;;;;;;;5143449;27;20509;-78
2022/01/18 15:35:37;;;;;;;21.07;12.00;;;;;;;;;;5137892;27;20470;-78
2022/01/18 15:38:05;;;;;;;22.10;12.37;;;;;;;;;;5147711;27;20449;-77
2022/01/18 15:40:35;;;;;;;22.50;12.27;;;;;;;;;;5145170;27;20473;-77
2022/01/18 15:43:04;;;;;;;20.13;11.77;;;;;;;;;;5147248;27;20449;-77
2022/01/18 15:45:33;;;;;;;21.73;13.27;;;;;;;;;;5143916;27;20839;-79
2022/01/18 15:48:01;;;;;;;23.37;13.57;;;;;;;;;;5136357;27;20964;-78
2022/01/18 15:50:30;;;;;;;21.67;13.17;;;;;;;;;;5138906;27;20480;-78